Wunstorf, Germany

3:27 AM CEST on August 26, 2016 (GMT +0200)
Leinechaussee | | Change Station

Elev 144 ft 52.45 °N, 9.46 °E | Updated 5 minutes ago

Clear
Clear
65.7 °F
Feels Like 65.7 °F
N
0.6
Wind Variable Wind from NE
Gusts 1.2 mph

Today
High -- | Low -- °F
--% Chance of Precip.
Yesterday
High -- | Low -- °F
Precip. -- in
Pressure 29.98 in
Visibility -9999.0 miles
Clouds
Dew Point 56 °F
Humidity 71%
Rainfall 0.00 in
Snow Depth Not available.
6:23 AM 8:23 PM
Last Quarter, 40% visible
METAR EDDV 260120Z 13006KT CAVOK 22/11 Q1015
Pressure 29.98 in
Visibility -9999.0 miles
Clouds
Dew Point 56 °F
Humidity 71%
Rainfall 0.00 in
Snow Depth Not available.
6:23 AM 8:23 PM
Last Quarter, 40% visible
METAR EDDV 260120Z 13006KT CAVOK 22/11 Q1015

10-Day Weather Forecast

×

Almanac

Astronomy

Aug. 26, 2016 Rise Set
Actual Time
Civil Twilight
Nautical Twilight
Astronomical Twilight
Moon
Length of Visible Light
Length of Day
Tomorrow will be .
, % of the Moon is Illuminated

Today's Extremes

Country Highs Country Lows

Community

WunderPhotos

Upload Photos

1,935,005 photos uploaded!

WunderBlog® & News

Nearby

Air Quality

  Air Quality AQ Index Pollutant
Not available.

Snow Depth

Station Depth Elevation

Earthquake Activity

City Distance Mag. Time & Date
Minimum magnitude displayed is 2.5.

Coastal Water Temperatures

Place Temperature

Stations

Nearby Weather Stations

Station Location Temp. Windchill Dew Point Humidity Wind Precip. Elev Updated Type